createdAt,value
2023-03-25T00:01:17.343Z,0.70
2023-03-25T00:03:50.787Z,5.35
2023-03-25T00:06:18.873Z,0.52
2023-03-25T00:08:46.395Z,2.42
2023-03-25T00:11:13.406Z,4.63
2023-03-25T00:13:40.659Z,0.70
2023-03-25T00:16:10.024Z,2.40
2023-03-25T00:18:37.551Z,1.05
2023-03-25T00:21:10.552Z,2.38
2023-03-25T00:23:39.465Z,1.73
2023-03-25T00:26:07.488Z,6.55
2023-03-25T00:28:36.910Z,4.15
2023-03-25T00:31:07.158Z,0.75
2023-03-25T00:33:35.344Z,2.17
2023-03-25T00:36:04.446Z,2.53
2023-03-25T00:38:35.174Z,6.13
2023-03-25T00:41:13.039Z,0.90
2023-03-25T00:43:40.805Z,1.75
2023-03-25T00:46:08.049Z,1.08
2023-03-25T00:48:35.264Z,3.85
2023-03-25T00:51:08.968Z,5.00
2023-03-25T00:53:37.776Z,5.50
2023-03-25T00:56:05.749Z,2.75
2023-03-25T00:58:32.920Z,4.22
2023-03-25T01:00:59.931Z,2.60
2023-03-25T01:03:29.070Z,2.58
2023-03-25T01:05:57.849Z,2.30
2023-03-25T01:08:25.230Z,3.50
2023-03-25T01:10:54.108Z,3.38
2023-03-25T01:13:22.856Z,3.08
2023-03-25T01:15:51.215Z,6.65
2023-03-25T01:18:18.532Z,5.70
2023-03-25T01:20:45.560Z,1.45
2023-03-25T01:23:13.013Z,6.68
2023-03-25T01:25:40.349Z,9.63
2023-03-25T01:28:07.351Z,5.78
2023-03-25T01:30:35.591Z,2.53
2023-03-25T01:33:02.745Z,0.35
2023-03-25T01:35:29.844Z,3.20
2023-03-25T01:37:57.071Z,8.55
2023-03-25T01:40:24.548Z,2.33
2023-03-25T01:42:51.580Z,2.05
2023-03-25T01:45:20.568Z,3.45
2023-03-25T01:47:52.806Z,8.23
2023-03-25T01:50:21.052Z,11.70
2023-03-25T01:52:51.951Z,9.65
2023-03-25T01:55:20.240Z,5.15
2023-03-25T01:57:48.297Z,5.25
2023-03-25T02:00:16.490Z,3.45
2023-03-25T02:02:43.716Z,4.82
2023-03-25T02:05:19.254Z,9.40
2023-03-25T02:07:49.027Z,3.72
2023-03-25T02:10:17.233Z,4.57
2023-03-25T02:12:45.785Z,5.28
2023-03-25T02:15:17.697Z,4.28
2023-03-25T02:18:05.805Z,4.03
2023-03-25T02:21:03.385Z,10.95
2023-03-25T02:23:58.330Z,3.00
2023-03-25T02:26:50.053Z,7.32
2023-03-25T02:29:58.996Z,8.77
2023-03-25T02:32:57.308Z,7.63
2023-03-25T02:35:24.312Z,3.63
2023-03-25T02:38:07.461Z,3.30
2023-03-25T02:40:52.149Z,3.30
2023-03-25T02:43:52.321Z,7.90
2023-03-25T02:46:20.828Z,6.15
2023-03-25T02:48:51.240Z,8.18
2023-03-25T02:51:27.250Z,5.18
2023-03-25T02:53:58.396Z,5.15
2023-03-25T02:56:29.369Z,4.57
2023-03-25T02:58:57.409Z,6.18
2023-03-25T03:01:26.718Z,4.60
2023-03-25T03:03:56.411Z,6.93
2023-03-25T03:06:25.257Z,7.47
2023-03-25T03:09:17.431Z,8.48
2023-03-25T03:11:47.125Z,7.87
2023-03-25T03:14:32.795Z,9.15
2023-03-25T03:17:19.983Z,6.43
2023-03-25T03:19:54.634Z,8.90
2023-03-25T03:22:37.219Z,2.85
2023-03-25T03:25:16.016Z,5.72
2023-03-25T03:27:50.070Z,4.38
2023-03-25T03:30:49.320Z,3.67
2023-03-25T03:33:30.536Z,1.20
2023-03-25T03:36:02.056Z,1.63
2023-03-25T03:38:35.557Z,1.70
2023-03-25T03:41:08.095Z,4.10
2023-03-25T03:46:48.350Z,4.78
2023-03-25T03:49:19.947Z,3.30
2023-03-25T03:51:52.623Z,4.90
2023-03-25T03:54:28.056Z,5.57
2023-03-25T03:57:02.465Z,3.50
2023-03-25T03:59:57.646Z,3.22
2023-03-25T04:02:38.400Z,0.88
2023-03-25T04:05:12.027Z,3.70
2023-03-25T04:07:44.187Z,4.40
2023-03-25T04:10:21.529Z,1.58
2023-03-25T04:12:52.773Z,10.55
2023-03-25T04:15:20.281Z,2.28
2023-03-25T04:17:48.153Z,7.38
2023-03-25T04:20:23.566Z,1.88
2023-03-25T04:22:52.214Z,10.90
2023-03-25T04:25:22.066Z,8.63
2023-03-25T04:27:49.251Z,5.30
2023-03-25T04:30:19.811Z,5.45
2023-03-25T04:32:47.284Z,7.30
2023-03-25T04:35:16.994Z,4.10
2023-03-25T04:37:48.943Z,5.07
2023-03-25T04:40:18.658Z,5.82
2023-03-25T04:42:46.688Z,7.80
2023-03-25T04:45:16.904Z,4.35
2023-03-25T04:47:49.094Z,4.55
2023-03-25T04:50:22.395Z,3.38
2023-03-25T04:52:51.009Z,2.63
2023-03-25T04:55:19.528Z,6.18
2023-03-25T04:57:48.054Z,5.10
2023-03-25T05:00:18.077Z,5.25
2023-03-25T05:02:54.298Z,3.42
2023-03-25T05:05:23.891Z,1.83
2023-03-25T05:07:53.963Z,4.28
2023-03-25T05:10:24.199Z,4.18
2023-03-25T05:12:57.653Z,3.60
2023-03-25T05:15:24.815Z,12.38
2023-03-25T05:17:52.313Z,3.63
2023-03-25T05:20:19.627Z,4.60
2023-03-25T05:22:46.651Z,7.15
2023-03-25T05:25:13.800Z,6.07
2023-03-25T05:27:40.865Z,2.65
2023-03-25T05:30:08.567Z,3.88
2023-03-25T05:32:35.616Z,4.72
2023-03-25T05:35:03.490Z,1.83
2023-03-25T05:37:30.863Z,5.38
2023-03-25T05:39:58.096Z,4.20
2023-03-25T05:42:25.253Z,3.10
2023-03-25T05:44:53.617Z,3.35
2023-03-25T05:47:25.202Z,2.25
2023-03-25T05:49:53.987Z,6.53
2023-03-25T05:52:24.417Z,7.22
2023-03-25T05:54:51.958Z,5.57
2023-03-25T05:57:19.022Z,6.88
2023-03-25T05:59:46.153Z,3.42
2023-03-25T06:02:15.749Z,4.07
2023-03-25T06:04:44.076Z,1.85
2023-03-25T06:07:13.992Z,1.35
2023-03-25T06:09:46.121Z,2.72
2023-03-25T06:12:19.686Z,4.47
2023-03-25T06:14:47.651Z,5.38
2023-03-25T06:17:18.833Z,5.57
2023-03-25T06:19:45.867Z,5.25
2023-03-25T06:22:12.881Z,1.33
2023-03-25T06:24:41.318Z,3.13
2023-03-25T06:27:13.858Z,2.35
2023-03-25T06:32:13.689Z,8.27
2023-03-25T06:34:42.696Z,2.78
2023-03-25T06:37:10.636Z,1.95
2023-03-25T06:39:37.786Z,5.30
2023-03-25T06:42:12.841Z,8.40
2023-03-25T06:45:04.954Z,4.10
2023-03-25T06:47:44.417Z,3.08
2023-03-25T06:50:11.550Z,8.20
2023-03-25T06:52:38.638Z,9.35
2023-03-25T06:55:06.182Z,4.55
2023-03-25T06:57:33.210Z,9.15
2023-03-25T07:00:00.275Z,6.22
2023-03-25T07:02:27.367Z,3.60
2023-03-25T07:04:54.534Z,11.15
2023-03-25T07:07:21.662Z,5.38
2023-03-25T07:09:54.976Z,4.10
2023-03-25T07:12:23.190Z,5.13
2023-03-25T07:14:54.911Z,7.05
2023-03-25T07:17:22.620Z,6.33
2023-03-25T07:19:50.224Z,15.15
2023-03-25T07:22:17.331Z,5.70
2023-03-25T07:24:44.403Z,4.80
2023-03-25T07:27:12.467Z,9.23
2023-03-25T07:29:40.338Z,5.28
2023-03-25T07:32:07.438Z,3.10
2023-03-25T07:34:34.482Z,3.50
2023-03-25T07:37:01.611Z,3.67
2023-03-25T07:39:28.710Z,7.07
2023-03-25T07:41:55.726Z,1.55
2023-03-25T07:44:51.951Z,7.82
2023-03-25T07:47:19.062Z,1.83
2023-03-25T07:49:47.670Z,4.47
2023-03-25T07:52:14.693Z,2.28
2023-03-25T07:54:41.848Z,5.72
2023-03-25T07:57:08.930Z,7.97
2023-03-25T07:59:36.004Z,4.18
2023-03-25T08:02:03.230Z,6.05
2023-03-25T08:04:30.506Z,6.38
2023-03-25T08:06:57.707Z,5.18
2023-03-25T08:09:24.848Z,4.20
2023-03-25T08:11:51.979Z,7.10
2023-03-25T08:14:19.069Z,7.90
2023-03-25T08:16:46.761Z,2.45
2023-03-25T08:19:14.448Z,7.78
2023-03-25T08:21:41.657Z,4.38
2023-03-25T08:24:08.866Z,9.30
2023-03-25T08:26:36.035Z,3.90
2023-03-25T08:29:04.001Z,6.68
2023-03-25T08:31:32.358Z,2.67
2023-03-25T08:34:05.259Z,2.97
2023-03-25T08:36:32.432Z,3.72
2023-03-25T08:38:59.500Z,3.85
2023-03-25T08:41:26.667Z,2.08
2023-03-25T08:43:53.797Z,1.65
2023-03-25T08:46:20.936Z,0.93
2023-03-25T08:48:50.113Z,2.08
2023-03-25T08:51:17.708Z,6.63
2023-03-25T08:53:44.890Z,4.78
2023-03-25T08:56:11.989Z,1.95
2023-03-25T08:58:39.551Z,2.28
2023-03-25T09:01:07.178Z,0.22
2023-03-25T09:03:34.326Z,3.08
2023-03-25T09:06:05.710Z,2.45
2023-03-25T09:08:33.186Z,1.13
2023-03-25T09:11:00.406Z,4.20
2023-03-25T09:13:27.430Z,5.10
2023-03-25T09:15:54.875Z,3.50
2023-03-25T09:18:22.124Z,4.45
2023-03-25T09:20:49.570Z,3.60
2023-03-25T09:23:16.611Z,7.40
2023-03-25T09:25:44.431Z,2.08
2023-03-25T09:28:11.505Z,5.47
2023-03-25T09:30:38.687Z,6.13
2023-03-25T09:33:06.849Z,2.03
2023-03-25T09:35:34.154Z,3.40
2023-03-25T09:38:01.276Z,4.38
2023-03-25T09:40:28.473Z,1.98
2023-03-25T09:42:58.678Z,6.18
2023-03-25T09:45:36.717Z,4.00
2023-03-25T09:48:15.911Z,9.27
2023-03-25T09:50:45.373Z,2.95
2023-03-25T09:53:40.813Z,5.03
2023-03-25T09:56:14.190Z,8.63
2023-03-25T09:58:44.751Z,5.00
2023-03-25T10:01:20.050Z,7.75
2023-03-25T10:04:24.754Z,3.35
2023-03-25T10:07:29.257Z,3.13
2023-03-25T10:10:18.330Z,6.22
2023-03-25T10:13:10.421Z,4.47
2023-03-25T10:16:02.000Z,2.25
2023-03-25T10:18:48.119Z,4.32
2023-03-25T10:21:39.948Z,11.38
2023-03-25T10:24:07.094Z,6.10
2023-03-25T10:26:44.032Z,5.15
2023-03-25T10:29:15.822Z,3.55
2023-03-25T10:31:56.641Z,8.53
2023-03-25T10:34:35.022Z,7.10
2023-03-25T10:37:10.217Z,5.70
2023-03-25T10:39:45.243Z,1.30
2023-03-25T10:42:31.488Z,4.72
2023-03-25T10:44:58.694Z,10.88
2023-03-25T10:47:30.712Z,9.82
2023-03-25T10:49:59.386Z,9.05
2023-03-25T10:52:26.631Z,6.40
2023-03-25T10:54:56.097Z,5.22
2023-03-25T10:57:29.497Z,9.48
2023-03-25T11:00:16.818Z,9.63
2023-03-25T11:02:45.463Z,5.55
2023-03-25T11:05:19.095Z,6.65
2023-03-25T11:08:08.726Z,8.20
2023-03-25T11:10:48.461Z,5.53
2023-03-25T11:13:17.209Z,5.13
2023-03-25T11:15:44.412Z,3.47
2023-03-25T11:18:18.227Z,7.57
2023-03-25T11:20:51.448Z,6.10
2023-03-25T11:23:27.424Z,6.57
2023-03-25T11:25:55.658Z,4.53
2023-03-25T11:28:38.626Z,5.22
2023-03-25T11:31:16.256Z,5.10
2023-03-25T11:34:05.827Z,7.47
2023-03-25T11:36:37.650Z,6.57
2023-03-25T11:39:18.567Z,12.15
2023-03-25T11:41:46.061Z,7.75
2023-03-25T11:44:39.524Z,4.32
2023-03-25T11:47:10.639Z,9.32
2023-03-25T11:49:41.204Z,7.38
2023-03-25T11:52:14.834Z,6.40
2023-03-25T11:54:42.918Z,9.20
2023-03-25T11:57:16.144Z,7.13
2023-03-25T11:59:47.829Z,5.20
2023-03-25T12:02:24.470Z,10.73
2023-03-25T12:04:57.672Z,9.15
2023-03-25T12:07:24.772Z,14.18
2023-03-25T12:09:58.218Z,10.63
2023-03-25T12:12:43.219Z,8.75
2023-03-25T12:15:41.353Z,6.28
2023-03-25T12:18:43.484Z,5.25
2023-03-25T12:21:19.184Z,12.20
2023-03-25T12:24:09.238Z,4.93
2023-03-25T12:26:47.716Z,10.82
2023-03-25T12:29:26.705Z,7.70
2023-03-25T12:32:09.125Z,8.88
2023-03-25T12:35:19.974Z,5.82
2023-03-25T12:38:10.457Z,5.07
2023-03-25T12:41:04.131Z,2.67
2023-03-25T12:43:50.597Z,14.82
2023-03-25T12:46:55.905Z,9.00
2023-03-25T12:49:29.098Z,7.07
2023-03-25T12:52:23.843Z,7.00
2023-03-25T12:55:06.458Z,6.15
2023-03-25T12:57:45.502Z,12.25
2023-03-25T13:00:14.515Z,9.98
2023-03-25T13:02:52.803Z,4.18
2023-03-25T13:05:30.941Z,7.78
2023-03-25T13:08:04.109Z,4.40
2023-03-25T13:10:36.405Z,4.63
2023-03-25T13:13:09.423Z,4.10
2023-03-25T13:15:42.610Z,5.43
2023-03-25T13:18:24.869Z,6.07
2023-03-25T13:21:03.480Z,6.78
2023-03-25T13:23:35.196Z,6.47
2023-03-25T13:26:17.082Z,6.13
2023-03-25T13:28:48.554Z,7.15
2023-03-25T13:31:37.395Z,4.60
2023-03-25T13:34:23.070Z,9.13
2023-03-25T13:36:59.737Z,6.20
2023-03-25T13:39:41.668Z,2.50
2023-03-25T13:42:26.623Z,4.40
2023-03-25T13:44:57.987Z,3.90
2023-03-25T13:47:41.595Z,8.23
2023-03-25T13:50:28.214Z,5.93
2023-03-25T13:53:12.851Z,11.43
2023-03-25T13:58:59.872Z,5.88
2023-03-25T14:01:48.443Z,7.40
2023-03-25T14:04:53.054Z,11.05
2023-03-25T14:07:54.049Z,7.97
2023-03-25T14:10:24.066Z,7.75
2023-03-25T14:12:56.367Z,11.23
2023-03-25T14:15:32.612Z,10.52
2023-03-25T14:23:44.898Z,6.32
2023-03-25T14:27:03.385Z,8.82
2023-03-25T14:30:13.060Z,8.43
2023-03-25T14:34:10.870Z,5.85
2023-03-25T14:37:13.427Z,8.75
2023-03-25T14:39:49.346Z,6.03
2023-03-25T14:42:28.794Z,8.90
2023-03-25T14:45:42.319Z,5.45
2023-03-25T14:48:26.030Z,4.75
2023-03-25T14:51:29.652Z,15.95
2023-03-25T14:54:02.965Z,7.60
2023-03-25T14:56:42.612Z,5.15
2023-03-25T14:59:15.594Z,8.23
2023-03-25T15:01:45.484Z,8.85
2023-03-25T15:04:38.498Z,9.55
2023-03-25T15:07:11.803Z,9.95
2023-03-25T15:09:50.873Z,5.53
2023-03-25T15:12:23.913Z,14.07
2023-03-25T15:14:56.776Z,3.97
2023-03-25T15:17:44.622Z,9.68
2023-03-25T15:20:23.517Z,8.57
2023-03-25T15:23:18.475Z,9.57
2023-03-25T15:25:48.402Z,12.75
2023-03-25T15:28:27.676Z,9.93
2023-03-25T15:31:23.380Z,6.00
2023-03-25T15:34:18.077Z,9.07
2023-03-25T15:37:17.450Z,8.00
2023-03-25T15:40:00.837Z,5.90
2023-03-25T15:43:02.148Z,2.35
2023-03-25T15:45:40.247Z,4.38
2023-03-25T15:48:22.066Z,6.70
2023-03-25T15:50:49.779Z,11.85
2023-03-25T15:53:42.379Z,6.00
2023-03-25T15:58:57.882Z,9.00
2023-03-25T16:01:30.041Z,7.53
2023-03-25T16:04:03.725Z,2.97
2023-03-25T16:06:34.404Z,5.10
2023-03-25T16:09:02.875Z,4.68
2023-03-25T16:11:29.984Z,10.38
2023-03-25T16:14:11.501Z,7.32
2023-03-25T16:16:44.241Z,8.52
2023-03-25T16:19:19.357Z,6.28
2023-03-25T16:21:51.796Z,8.50
2023-03-25T16:26:49.099Z,8.95
2023-03-25T16:29:22.796Z,8.88
2023-03-25T16:32:04.042Z,9.05
2023-03-25T16:34:40.393Z,9.50
2023-03-25T16:37:07.850Z,10.75
2023-03-25T16:39:36.748Z,12.18
2023-03-25T16:42:11.724Z,5.95
2023-03-25T16:44:38.970Z,9.25
2023-03-25T16:47:06.513Z,9.85
2023-03-25T16:49:39.735Z,14.10
2023-03-25T16:52:14.177Z,15.63
2023-03-25T16:55:06.124Z,12.93
2023-03-25T16:57:37.370Z,11.85
2023-03-25T17:00:18.822Z,11.35
2023-03-25T17:02:49.655Z,7.25
2023-03-25T17:05:26.507Z,8.15
2023-03-25T17:08:05.019Z,11.25
2023-03-25T17:10:47.509Z,18.48
2023-03-25T17:13:22.834Z,23.77
2023-03-25T17:15:51.584Z,8.15
2023-03-25T17:18:22.441Z,9.25
2023-03-25T17:20:50.506Z,10.35
2023-03-25T17:23:27.326Z,14.27
2023-03-25T17:26:00.452Z,13.18
2023-03-25T17:28:58.306Z,8.95
2023-03-25T17:31:38.875Z,11.07
2023-03-25T17:34:07.409Z,15.82
2023-03-25T17:36:37.825Z,9.95
2023-03-25T17:39:16.205Z,22.20
2023-03-25T17:41:43.565Z,19.00
2023-03-25T17:44:17.312Z,15.32
2023-03-25T17:46:44.878Z,15.07
2023-03-25T17:49:19.542Z,15.65
2023-03-25T17:51:46.884Z,13.60
2023-03-25T17:54:14.664Z,11.88
2023-03-25T17:56:42.627Z,13.85
2023-03-25T17:59:19.196Z,9.85
2023-03-25T18:01:47.587Z,15.70
2023-03-25T18:04:15.456Z,17.90
2023-03-25T18:06:43.696Z,7.40
2023-03-25T18:09:23.809Z,12.23
2023-03-25T18:11:53.902Z,11.38
2023-03-25T18:14:22.070Z,7.38
2023-03-25T18:16:50.803Z,10.70
2023-03-25T18:19:21.631Z,11.05
2023-03-25T18:21:49.154Z,16.92
2023-03-25T18:24:16.367Z,6.28
2023-03-25T18:26:44.654Z,10.20
2023-03-25T18:29:18.268Z,13.65
2023-03-25T18:31:46.493Z,14.13
2023-03-25T18:34:15.435Z,11.85
2023-03-25T18:36:43.767Z,11.88
2023-03-25T18:39:16.729Z,15.13
2023-03-25T18:41:44.440Z,9.48
2023-03-25T18:44:12.089Z,13.70
2023-03-25T18:46:39.769Z,11.93
2023-03-25T18:49:16.149Z,17.60
2023-03-25T18:51:43.574Z,20.02
2023-03-25T18:54:11.010Z,15.27
2023-03-25T18:56:41.387Z,13.43
2023-03-25T18:59:11.253Z,10.75
2023-03-25T19:01:38.681Z,10.60
2023-03-25T19:04:06.001Z,3.83
2023-03-25T19:06:33.991Z,4.32
2023-03-25T19:09:01.074Z,3.92
2023-03-25T19:11:30.472Z,2.75
2023-03-25T19:13:59.903Z,3.65
2023-03-25T19:16:29.592Z,5.28
2023-03-25T19:18:56.644Z,5.10
2023-03-25T19:21:23.688Z,8.52
2023-03-25T19:23:52.063Z,7.20
2023-03-25T19:26:19.179Z,4.93
2023-03-25T19:28:46.464Z,3.90
2023-03-25T19:31:17.034Z,8.15
2023-03-25T19:33:44.357Z,8.23
2023-03-25T19:36:16.340Z,12.43
2023-03-25T19:38:43.424Z,7.95
2023-03-25T19:41:13.419Z,9.02
2023-03-25T19:43:41.093Z,15.40
2023-03-25T19:46:08.403Z,6.50
2023-03-25T19:48:36.028Z,7.32
2023-03-25T19:51:03.924Z,10.32
2023-03-25T19:53:31.123Z,7.57
2023-03-25T19:56:02.736Z,3.10
2023-03-25T19:58:29.839Z,3.40
2023-03-25T20:00:57.061Z,5.50
2023-03-25T20:03:24.307Z,5.80
2023-03-25T20:05:59.902Z,3.63
2023-03-25T20:08:29.160Z,2.47
2023-03-25T20:10:56.677Z,3.30
2023-03-25T20:13:23.867Z,5.20
2023-03-25T20:15:51.865Z,2.33
2023-03-25T20:18:19.892Z,10.27
2023-03-25T20:20:47.050Z,8.13
2023-03-25T20:23:14.243Z,5.30
2023-03-25T20:25:41.571Z,5.05
2023-03-25T20:28:09.063Z,3.60
2023-03-25T20:30:36.350Z,5.75
2023-03-25T20:33:03.940Z,3.85
2023-03-25T20:35:31.696Z,2.67
2023-03-25T20:37:59.256Z,9.60
2023-03-25T20:40:37.487Z,7.07
2023-03-25T20:43:13.629Z,7.03
2023-03-25T20:45:40.928Z,11.25
2023-03-25T20:48:08.760Z,10.70
2023-03-25T20:50:36.115Z,6.97
2023-03-25T20:53:04.134Z,2.72
2023-03-25T20:55:31.567Z,8.02
2023-03-25T20:57:58.639Z,14.55
2023-03-25T21:00:25.753Z,4.57
2023-03-25T21:02:54.155Z,8.68
2023-03-25T21:05:21.585Z,8.40
2023-03-25T21:07:48.666Z,12.35
2023-03-25T21:10:16.312Z,7.32
2023-03-25T21:12:44.873Z,6.43
2023-03-25T21:15:14.886Z,7.50
2023-03-25T21:17:42.740Z,8.90
2023-03-25T21:20:10.811Z,10.10
2023-03-25T21:22:44.444Z,11.43
2023-03-25T21:25:17.973Z,9.35
2023-03-25T21:27:46.602Z,15.80
2023-03-25T21:30:14.816Z,14.02
2023-03-25T21:32:42.241Z,7.78
2023-03-25T21:35:09.968Z,9.25
2023-03-25T21:37:38.708Z,8.07
2023-03-25T21:40:08.168Z,9.85
2023-03-25T21:42:38.150Z,9.07
2023-03-25T21:45:07.347Z,15.18
2023-03-25T21:47:35.795Z,16.23
2023-03-25T21:50:09.267Z,15.52
2023-03-25T21:52:37.284Z,14.00
2023-03-25T21:55:05.406Z,12.02
2023-03-25T21:57:37.581Z,10.13
2023-03-25T22:00:09.887Z,17.70
2023-03-25T22:02:39.622Z,12.93
2023-03-25T22:05:07.448Z,16.92
2023-03-25T22:07:34.431Z,17.10
2023-03-25T22:10:01.592Z,11.43
2023-03-25T22:12:29.889Z,18.52
2023-03-25T22:14:57.293Z,20.02
2023-03-25T22:17:25.102Z,13.90
2023-03-25T22:19:52.231Z,10.57
2023-03-25T22:22:21.434Z,14.13
2023-03-25T22:24:49.383Z,13.77
2023-03-25T22:27:16.665Z,19.98
2023-03-25T22:29:44.165Z,22.52
2023-03-25T22:32:11.200Z,17.27
2023-03-25T22:34:39.417Z,21.85
2023-03-25T22:37:06.768Z,20.65
2023-03-25T22:39:33.853Z,23.33
2023-03-25T22:42:01.131Z,15.10
2023-03-25T22:44:28.191Z,11.02
2023-03-25T22:46:55.468Z,12.60
2023-03-25T22:49:22.555Z,21.10
2023-03-25T22:51:49.902Z,23.08
2023-03-25T22:54:17.121Z,25.27
2023-03-25T22:56:44.362Z,9.30
2023-03-25T22:59:12.806Z,20.20
2023-03-25T23:01:41.570Z,15.55
2023-03-25T23:04:09.279Z,16.75
2023-03-25T23:06:37.293Z,23.67
2023-03-25T23:09:06.554Z,19.73
2023-03-25T23:11:35.067Z,11.02
2023-03-25T23:14:07.339Z,10.02
2023-03-25T23:16:35.434Z,19.83
2023-03-25T23:19:05.764Z,17.73
2023-03-25T23:21:33.424Z,25.73
2023-03-25T23:24:03.712Z,19.30
2023-03-25T23:26:37.012Z,24.20
2023-03-25T23:29:08.659Z,28.95
2023-03-25T23:31:36.971Z,14.05
2023-03-25T23:34:07.038Z,24.23
2023-03-25T23:36:39.233Z,16.25
2023-03-25T23:39:09.069Z,21.50
2023-03-25T23:41:36.381Z,21.92
2023-03-25T23:44:04.568Z,18.92
2023-03-25T23:46:31.857Z,20.80
2023-03-25T23:49:02.412Z,23.73
2023-03-25T23:51:33.179Z,19.80
2023-03-25T23:54:01.140Z,19.08
2023-03-25T23:56:29.181Z,27.48
2023-03-25T23:59:00.052Z,20.80
